Chaiyaphum, Thailand
Current Conditions -  °F | °C
As of 5:00 PM on Monday 26 Jan 2015 (Local Time) from VTUK Reporting Station
Clear Clear  
Wind Chill: 32°   Ceiling: Unl
Heat Index: 32°   Visibility: 5mi
Dew Point: 11°   Wind: 3mph
Humidity: 27%   Direction: NA
Pressure: 29.85"   Gusts: NA
Location:  15.8°N, 102.04°E
Report Text: VTUK 261000Z VRB03KT 8000 NSC 32/11 Q1011 A2987 RWY03 INFO L
Loading
Personal Weather Stations






























Interactive Weather Map New forecast layout! Learn more

10-Day Weather Forecast

Advertisements
Track Severe Weather on mobile